Time;durP1;ratioP1;P1;durP2;ratioP2;P2;SDS_P1;SDS_P2;PMS_P1;PMS_P2;Temp;Humidity;BMP_temperature;BMP_pressure;BME280_temperature;BME280_humidity;BME280_pressure;Samples;Min_cycle;Max_cycle;Signal;HPM_P1;HPM_P2
2021/06/13 00:01:44;;;;;;;16.27;7.07;;;14.00;99.90;;;;;;4933359;29;20048;-76
2021/06/13 00:04:10;;;;;;;19.00;7.28;;;14.00;99.90;;;;;;4918438;29;20040;-76
2021/06/13 00:06:36;;;;;;;21.70;7.82;;;13.90;99.90;;;;;;4917394;29;20048;-76
2021/06/13 00:09:04;;;;;;;19.98;7.65;;;13.90;99.90;;;;;;4916776;29;20046;-75
2021/06/13 00:11:30;;;;;;;17.92;7.40;;;13.90;99.90;;;;;;4917488;29;20382;-76
2021/06/13 00:13:56;;;;;;;17.33;7.57;;;13.90;99.90;;;;;;4917220;29;20047;-75
2021/06/13 00:16:22;;;;;;;17.50;7.32;;;13.90;99.90;;;;;;4933062;29;20119;-75
2021/06/13 00:18:58;;;;;;;16.48;7.45;;;13.80;99.90;;;;;;4918208;29;20404;-76
2021/06/13 00:21:24;;;;;;;18.73;7.35;;;13.80;99.90;;;;;;4933140;29;20419;-84
2021/06/13 00:23:49;;;;;;;22.02;8.68;;;13.80;99.90;;;;;;4918420;29;20033;-84
2021/06/13 00:26:15;;;;;;;17.60;7.80;;;13.80;99.90;;;;;;4918678;29;20037;-83
2021/06/13 00:28:42;;;;;;;21.30;8.43;;;13.80;99.90;;;;;;4917087;29;20131;-83
2021/06/13 00:31:08;;;;;;;15.60;6.95;;;13.90;99.90;;;;;;4933536;29;20176;-83
2021/06/13 00:33:34;;;;;;;15.68;7.60;;;13.70;99.90;;;;;;4932767;29;20528;-83
2021/06/13 00:36:00;;;;;;;23.58;7.72;;;13.70;99.90;;;;;;4917379;29;20059;-84
2021/06/13 00:38:27;;;;;;;19.27;7.72;;;13.60;99.90;;;;;;4917044;29;20047;-75
2021/06/13 00:40:53;;;;;;;21.90;8.27;;;13.60;99.90;;;;;;4916408;29;20039;-75
2021/06/13 00:43:23;;;;;;;16.92;7.57;;;13.60;99.90;;;;;;4916797;29;20072;-75
2021/06/13 00:45:50;;;;;;;20.05;8.10;;;13.60;99.90;;;;;;4916353;29;20111;-75
2021/06/13 00:48:16;;;;;;;23.23;8.15;;;13.50;99.90;;;;;;4916467;29;20141;-75
2021/06/13 00:50:50;;;;;;;21.38;7.72;;;13.50;99.90;;;;;;4917514;29;20036;-75
2021/06/13 00:53:19;;;;;;;18.00;7.53;;;13.50;99.90;;;;;;4918749;29;20079;-75
2021/06/13 00:55:45;;;;;;;25.10;8.70;;;13.40;99.90;;;;;;4932159;29;20042;-75
2021/06/13 00:58:11;;;;;;;19.75;8.80;;;13.40;99.90;;;;;;4917418;29;20127;-75
2021/06/13 01:00:38;;;;;;;25.77;9.10;;;13.40;99.90;;;;;;4916696;29;20078;-83
2021/06/13 01:03:05;;;;;;;14.15;8.07;;;13.20;99.90;;;;;;4917475;29;20063;-75
2021/06/13 01:05:31;;;;;;;21.65;8.48;;;13.30;99.90;;;;;;4917472;29;20044;-76
2021/06/13 01:08:05;;;;;;;21.30;9.60;;;13.20;99.90;;;;;;4916002;29;20051;-75
2021/06/13 01:10:39;;;;;;;20.50;9.82;;;13.30;99.90;;;;;;4917427;29;20044;-75
2021/06/13 01:13:23;;;;;;;22.00;10.10;;;13.20;99.90;;;;;;4917247;29;20393;-76
2021/06/13 01:15:58;;;;;;;20.95;8.55;;;13.20;99.90;;;;;;4917293;29;20036;-75
2021/06/13 01:18:42;;;;;;;24.10;9.50;;;13.20;99.90;;;;;;4915826;29;20060;-75
2021/06/13 01:21:22;;;;;;;18.85;9.25;;;13.20;99.90;;;;;;4916838;29;20488;-75
2021/06/13 01:24:15;;;;;;;18.05;8.88;;;13.10;99.90;;;;;;4915580;29;20393;-70
2021/06/13 01:27:07;;;;;;;16.95;8.77;;;13.10;99.90;;;;;;4916889;29;20381;-70
2021/06/13 01:29:38;;;;;;;24.15;9.65;;;13.10;99.90;;;;;;4916986;29;20045;-70
2021/06/13 01:32:09;;;;;;;16.65;9.30;;;13.20;99.90;;;;;;4916600;29;20044;-70
2021/06/13 01:34:43;;;;;;;23.85;9.73;;;13.10;99.90;;;;;;4931468;29;20098;-71
2021/06/13 01:37:13;;;;;;;18.50;8.75;;;13.10;99.90;;;;;;4915773;29;20405;-71
2021/06/13 01:39:41;;;;;;;24.58;9.70;;;13.10;99.90;;;;;;4916599;29;20087;-71
2021/06/13 01:42:09;;;;;;;19.10;8.98;;;13.10;99.90;;;;;;4916649;29;20464;-71
2021/06/13 01:44:40;;;;;;;25.73;10.35;;;13.10;99.90;;;;;;4916601;29;20111;-71
2021/06/13 01:47:08;;;;;;;20.20;9.38;;;13.00;99.90;;;;;;4916652;29;20085;-71
2021/06/13 01:49:35;;;;;;;21.63;10.23;;;13.00;99.90;;;;;;4916375;29;20071;-71
2021/06/13 01:52:01;;;;;;;22.70;9.35;;;12.90;99.90;;;;;;4916744;29;20036;-71
2021/06/13 01:54:30;;;;;;;21.00;9.15;;;12.90;99.90;;;;;;4903873;29;20041;-71
2021/06/13 01:56:58;;;;;;;20.63;9.65;;;13.00;99.90;;;;;;4916397;29;20044;-71
2021/06/13 01:59:25;;;;;;;23.92;9.70;;;12.90;99.90;;;;;;4916489;29;20043;-71
2021/06/13 02:01:55;;;;;;;23.77;8.90;;;12.90;99.90;;;;;;4916343;29;20042;-71
2021/06/13 02:04:22;;;;;;;26.00;10.10;;;12.80;99.90;;;;;;4916518;29;20113;-71
2021/06/13 02:06:54;;;;;;;21.30;9.20;;;12.80;99.90;;;;;;4916281;29;20036;-71
2021/06/13 02:09:21;;;;;;;20.38;9.52;;;12.80;99.90;;;;;;4916482;29;20065;-71
2021/06/13 02:11:48;;;;;;;22.95;8.55;;;12.80;99.90;;;;;;4915872;29;20519;-71
2021/06/13 02:14:18;;;;;;;24.10;9.57;;;12.80;99.90;;;;;;4916380;29;20067;-71
2021/06/13 02:16:46;;;;;;;19.80;8.85;;;12.80;99.90;;;;;;4916090;29;20044;-71
2021/06/13 02:19:17;;;;;;;24.02;9.07;;;12.80;99.90;;;;;;4930352;29;20060;-71
2021/06/13 02:21:45;;;;;;;21.67;8.90;;;12.80;99.90;;;;;;4916344;29;20051;-71
2021/06/13 02:24:12;;;;;;;26.00;10.30;;;13.00;99.90;;;;;;4915991;29;20040;-71
2021/06/13 02:26:42;;;;;;;19.92;8.80;;;12.80;99.90;;;;;;4916081;29;20048;-71
2021/06/13 02:29:09;;;;;;;20.35;8.68;;;13.00;99.90;;;;;;4914612;29;20052;-71
2021/06/13 02:31:40;;;;;;;21.55;9.73;;;12.80;99.90;;;;;;4906493;29;20095;-72
2021/06/13 02:34:07;;;;;;;21.40;9.30;;;12.80;99.90;;;;;;4915794;29;20545;-71
2021/06/13 02:36:33;;;;;;;23.13;9.00;;;12.70;99.90;;;;;;4919935;29;20044;-71
2021/06/13 02:39:00;;;;;;;25.17;9.18;;;12.80;99.90;;;;;;4919862;29;20063;-71
2021/06/13 02:41:27;;;;;;;26.40;9.07;;;12.70;99.90;;;;;;4934554;29;20040;-72
2021/06/13 02:43:54;;;;;;;23.08;9.30;;;12.70;99.90;;;;;;4919918;29;20516;-72
2021/06/13 02:46:20;;;;;;;19.73;8.85;;;12.70;99.90;;;;;;4919631;29;20036;-72
2021/06/13 02:48:46;;;;;;;24.05;8.90;;;12.70;99.90;;;;;;4919678;29;20041;-72
2021/06/13 02:51:14;;;;;;;24.02;9.35;;;12.60;99.90;;;;;;4934276;29;20040;-71
2021/06/13 02:53:46;;;;;;;22.83;8.25;;;12.70;99.90;;;;;;4919837;29;20048;-71
2021/06/13 02:56:29;;;;;;;21.75;9.05;;;12.70;99.90;;;;;;4919505;29;20047;-71
2021/06/13 02:59:01;;;;;;;25.83;9.02;;;12.70;99.90;;;;;;4919698;29;20091;-72
2021/06/13 03:01:27;;;;;;;19.33;8.95;;;12.60;99.90;;;;;;4919398;29;20042;-72
2021/06/13 03:03:56;;;;;;;18.45;8.85;;;12.60;99.90;;;;;;4919429;29;20036;-72
2021/06/13 03:06:30;;;;;;;18.90;8.48;;;12.70;99.90;;;;;;4919381;29;20040;-71
2021/06/13 03:08:58;;;;;;;21.55;8.85;;;12.70;99.90;;;;;;4919257;29;20560;-71
2021/06/13 03:11:25;;;;;;;17.95;8.23;;;12.70;99.90;;;;;;4919182;29;20115;-71
2021/06/13 03:13:52;;;;;;;24.92;8.43;;;12.70;99.90;;;;;;4919361;29;20043;-71
2021/06/13 03:16:20;;;;;;;19.63;8.63;;;12.70;99.90;;;;;;4919285;29;20088;-71
2021/06/13 03:18:48;;;;;;;20.08;8.18;;;12.70;99.90;;;;;;4933892;29;20052;-71
2021/06/13 03:21:15;;;;;;;23.30;8.48;;;12.60;99.90;;;;;;4919273;29;20111;-71
2021/06/13 03:23:42;;;;;;;20.45;8.40;;;12.60;99.90;;;;;;4914780;29;20456;-71
2021/06/13 03:26:09;;;;;;;20.75;8.13;;;12.70;99.90;;;;;;4910170;29;20051;-71
2021/06/13 03:28:37;;;;;;;19.15;7.45;;;12.70;99.90;;;;;;4918943;29;20111;-71
2021/06/13 03:31:04;;;;;;;19.13;8.85;;;12.60;99.90;;;;;;4919032;29;20051;-71
2021/06/13 03:33:32;;;;;;;20.00;8.25;;;12.60;99.90;;;;;;4919058;29;20404;-71
2021/06/13 03:35:59;;;;;;;15.05;7.55;;;12.70;99.90;;;;;;4918979;29;20048;-71
2021/06/13 03:38:27;;;;;;;20.77;8.48;;;12.70;99.90;;;;;;4918992;29;20044;-71
2021/06/13 03:40:55;;;;;;;16.35;7.88;;;12.70;99.90;;;;;;4919142;29;20048;-72
2021/06/13 03:43:21;;;;;;;18.90;8.65;;;12.70;99.90;;;;;;4918787;29;20454;-71
2021/06/13 03:45:49;;;;;;;16.95;8.07;;;12.80;99.90;;;;;;4918376;29;20127;-71
2021/06/13 03:48:17;;;;;;;20.95;8.25;;;12.70;99.90;;;;;;4918523;29;20485;-71
2021/06/13 03:50:45;;;;;;;19.10;8.63;;;12.70;99.90;;;;;;4918779;29;20044;-71
2021/06/13 03:53:12;;;;;;;24.73;9.52;;;12.70;99.90;;;;;;4918535;29;20047;-71
2021/06/13 03:55:39;;;;;;;24.15;9.68;;;12.70;99.90;;;;;;4933226;29;20040;-72
2021/06/13 03:58:06;;;;;;;20.90;8.68;;;12.80;99.90;;;;;;4918508;29;20093;-72
2021/06/13 04:00:35;;;;;;;18.60;8.25;;;12.80;99.90;;;;;;4933039;29;20545;-72
2021/06/13 04:03:03;;;;;;;21.95;8.93;;;12.80;99.90;;;;;;4918258;29;20040;-71
2021/06/13 04:05:29;;;;;;;22.25;9.23;;;12.80;99.90;;;;;;4918384;29;20051;-71
2021/06/13 04:07:55;;;;;;;22.70;8.82;;;12.80;99.90;;;;;;4918200;29;20040;-71
2021/06/13 04:10:22;;;;;;;19.98;8.93;;;12.80;99.90;;;;;;4918233;29;20055;-71
2021/06/13 04:12:49;;;;;;;20.65;8.15;;;12.90;99.90;;;;;;4918261;29;20051;-71
2021/06/13 04:15:16;;;;;;;20.77;8.73;;;12.90;99.90;;;;;;4918180;29;20159;-71
2021/06/13 04:17:43;;;;;;;17.80;8.27;;;13.00;99.90;;;;;;4918257;29;20103;-71
2021/06/13 04:20:11;;;;;;;21.02;8.82;;;13.00;99.90;;;;;;4932433;29;20048;-71
2021/06/13 04:22:42;;;;;;;24.27;9.10;;;13.00;99.90;;;;;;4916896;29;20099;-71
2021/06/13 04:25:12;;;;;;;20.80;8.02;;;13.10;99.90;;;;;;4917862;29;20099;-71
2021/06/13 04:27:38;;;;;;;17.17;7.85;;;13.10;99.90;;;;;;4917825;29;20040;-71
2021/06/13 04:30:06;;;;;;;17.58;8.30;;;13.10;99.90;;;;;;4917765;29;20100;-71
2021/06/13 04:32:32;;;;;;;18.35;9.10;;;13.20;99.90;;;;;;4917952;29;20091;-71
2021/06/13 04:34:58;;;;;;;17.70;9.02;;;13.20;99.90;;;;;;4932483;29;20668;-72
2021/06/13 04:37:24;;;;;;;22.40;9.48;;;13.20;99.90;;;;;;4917687;29;20370;-72
2021/06/13 04:39:50;;;;;;;20.20;9.43;;;13.30;99.90;;;;;;4917610;29;20051;-72
2021/06/13 04:42:16;;;;;;;21.00;9.43;;;13.30;99.90;;;;;;4914424;29;20067;-72
2021/06/13 04:44:42;;;;;;;21.65;9.65;;;13.40;99.90;;;;;;4907605;29;20040;-72
2021/06/13 04:47:10;;;;;;;22.45;8.85;;;13.60;99.90;;;;;;4917702;29;20044;-72
2021/06/13 04:49:36;;;;;;;20.95;8.90;;;13.50;99.90;;;;;;4917336;29;20603;-72
2021/06/13 04:52:05;;;;;;;17.33;9.40;;;13.60;99.90;;;;;;4917658;29;20048;-72
2021/06/13 04:54:38;;;;;;;21.67;8.57;;;13.70;99.90;;;;;;4917418;29;20103;-72
2021/06/13 04:57:33;;;;;;;20.30;8.10;;;13.80;99.90;;;;;;4931366;29;20458;-72
2021/06/13 04:59:59;;;;;;;23.30;8.77;;;13.90;99.90;;;;;;4932000;29;20058;-72
2021/06/13 05:02:25;;;;;;;22.73;8.63;;;14.00;99.90;;;;;;4917519;29;20131;-72
2021/06/13 05:04:54;;;;;;;25.50;8.63;;;14.10;99.90;;;;;;4917212;29;20040;-72
2021/06/13 05:07:20;;;;;;;19.15;8.75;;;14.10;99.90;;;;;;4917137;29;20120;-72
2021/06/13 05:09:50;;;;;;;20.95;8.52;;;14.20;99.90;;;;;;4917241;29;20100;-72
2021/06/13 05:12:15;;;;;;;20.98;8.45;;;14.40;99.90;;;;;;4917234;29;20060;-72
2021/06/13 05:14:41;;;;;;;26.10;8.57;;;14.40;99.90;;;;;;4916968;29;20032;-72
2021/06/13 05:17:07;;;;;;;18.42;9.00;;;14.60;99.90;;;;;;4917104;29;20043;-72
2021/06/13 05:19:34;;;;;;;20.90;8.63;;;14.60;99.90;;;;;;4916834;29;20477;-72
2021/06/13 05:22:04;;;;;;;21.00;8.85;;;14.60;99.90;;;;;;4931378;29;20442;-72
2021/06/13 05:24:30;;;;;;;20.65;8.32;;;14.70;99.90;;;;;;4917016;29;20107;-72
2021/06/13 05:26:55;;;;;;;15.85;8.02;;;14.80;99.90;;;;;;4916851;29;20111;-72
2021/06/13 05:29:21;;;;;;;20.70;8.00;;;14.90;99.90;;;;;;4931460;29;20197;-72
2021/06/13 05:31:47;;;;;;;18.27;8.25;;;15.00;99.90;;;;;;4916664;29;20064;-72
2021/06/13 05:34:13;;;;;;;17.65;7.43;;;15.10;99.90;;;;;;4916981;29;20044;-72
2021/06/13 05:36:38;;;;;;;18.27;7.35;;;15.20;99.90;;;;;;4916798;29;20043;-72
2021/06/13 05:39:04;;;;;;;14.90;7.13;;;15.20;99.90;;;;;;4916693;29;20044;-72
2021/06/13 05:41:30;;;;;;;17.85;7.15;;;15.30;99.90;;;;;;4916718;29;20472;-72
2021/06/13 05:44:00;;;;;;;18.13;7.07;;;15.30;99.90;;;;;;4931216;29;20060;-72
2021/06/13 05:46:25;;;;;;;16.02;6.90;;;15.40;99.90;;;;;;4916517;29;20091;-72
2021/06/13 05:48:51;;;;;;;20.52;6.45;;;15.40;99.90;;;;;;4916480;29;20457;-72
2021/06/13 05:51:17;;;;;;;23.33;6.70;;;15.40;99.90;;;;;;4916484;29;20533;-72
2021/06/13 05:53:43;;;;;;;21.17;6.30;;;15.50;99.90;;;;;;4916596;29;20382;-72
2021/06/13 05:56:09;;;;;;;20.00;6.75;;;15.50;99.90;;;;;;4916515;29;20044;-72
2021/06/13 05:58:34;;;;;;;17.67;6.20;;;15.60;99.90;;;;;;4916594;29;20047;-72
2021/06/13 06:01:03;;;;;;;16.45;6.40;;;15.60;99.90;;;;;;4916589;29;20434;-72
2021/06/13 06:03:29;;;;;;;12.13;6.38;;;15.60;99.90;;;;;;4930940;29;20063;-72
2021/06/13 06:05:54;;;;;;;13.85;6.32;;;15.60;99.90;;;;;;4931211;29;20055;-72
2021/06/13 06:08:20;;;;;;;17.50;6.70;;;15.70;99.90;;;;;;4916071;29;20122;-72
2021/06/13 06:10:49;;;;;;;20.10;6.78;;;15.80;99.90;;;;;;4930936;29;20048;-72
2021/06/13 06:13:15;;;;;;;16.38;6.10;;;15.80;99.90;;;;;;4916291;29;20548;-72
2021/06/13 06:15:41;;;;;;;18.17;6.15;;;15.80;99.90;;;;;;4916274;29;20111;-72
2021/06/13 06:18:08;;;;;;;13.70;5.80;;;15.80;99.90;;;;;;4930707;29;20036;-72
2021/06/13 06:20:34;;;;;;;19.67;6.15;;;15.80;99.90;;;;;;4916289;29;20441;-72
2021/06/13 06:23:00;;;;;;;16.88;6.07;;;15.90;99.90;;;;;;4916267;29;20082;-72
2021/06/13 06:25:27;;;;;;;21.30;6.47;;;15.90;99.90;;;;;;4931044;29;20048;-72
2021/06/13 06:27:54;;;;;;;17.77;6.47;;;15.90;99.90;;;;;;4916138;29;20060;-72
2021/06/13 06:30:21;;;;;;;18.38;6.43;;;15.80;99.90;;;;;;4916061;29;20047;-72
2021/06/13 06:32:48;;;;;;;16.77;5.70;;;15.90;99.90;;;;;;4916191;29;20381;-72
2021/06/13 06:35:15;;;;;;;14.95;6.20;;;15.90;99.90;;;;;;4916107;29;20036;-72
2021/06/13 06:37:41;;;;;;;15.60;5.78;;;15.90;99.90;;;;;;4930704;29;20052;-72
2021/06/13 06:40:10;;;;;;;13.57;6.00;;;15.90;99.90;;;;;;4916064;29;20079;-71
2021/06/13 06:42:37;;;;;;;15.50;6.25;;;16.00;99.90;;;;;;4902813;29;20041;-71
2021/06/13 06:45:06;;;;;;;17.63;5.85;;;16.00;99.90;;;;;;4916070;29;20051;-71
2021/06/13 06:47:32;;;;;;;15.18;6.15;;;15.90;99.90;;;;;;4930386;29;20100;-71
2021/06/13 06:49:57;;;;;;;13.23;5.47;;;16.00;99.90;;;;;;4915932;29;20051;-71
2021/06/13 06:52:23;;;;;;;15.80;5.63;;;16.00;99.90;;;;;;4915972;29;20038;-71
2021/06/13 06:54:49;;;;;;;13.50;5.13;;;16.00;99.90;;;;;;4915893;29;20396;-71
2021/06/13 06:57:15;;;;;;;11.35;5.13;;;16.00;99.90;;;;;;4915951;29;20537;-71
2021/06/13 06:59:41;;;;;;;15.60;5.50;;;16.10;99.90;;;;;;4914699;29;20127;-72
2021/06/13 07:02:08;;;;;;;14.52;5.25;;;16.10;99.90;;;;;;4922195;29;20047;-72
2021/06/13 07:04:34;;;;;;;12.32;5.00;;;16.10;99.90;;;;;;4911134;29;20043;-72
2021/06/13 07:06:59;;;;;;;16.95;5.55;;;16.10;99.90;;;;;;4916258;29;20485;-72
2021/06/13 07:09:25;;;;;;;11.57;4.43;;;16.10;99.90;;;;;;4930353;29;20056;-72
2021/06/13 07:11:51;;;;;;;9.13;4.95;;;16.20;99.90;;;;;;4915572;29;20068;-71
2021/06/13 07:14:17;;;;;;;10.48;4.80;;;16.10;99.90;;;;;;4915727;29;20054;-71
2021/06/13 07:16:42;;;;;;;14.27;4.70;;;16.20;99.90;;;;;;4930147;29;20043;-71
2021/06/13 07:19:09;;;;;;;15.90;4.90;;;16.20;99.90;;;;;;4916380;29;20052;-72
2021/06/13 07:21:35;;;;;;;13.90;4.95;;;16.30;99.90;;;;;;4919030;29;20047;-72
2021/06/13 07:24:00;;;;;;;13.25;4.47;;;16.20;99.90;;;;;;4933897;29;20481;-72
2021/06/13 07:26:29;;;;;;;12.60;5.00;;;16.20;99.60;;;;;;4919013;29;20047;-72
2021/06/13 07:28:54;;;;;;;9.57;4.40;;;16.20;99.80;;;;;;4918845;29;20041;-72
2021/06/13 07:31:20;;;;;;;13.15;5.10;;;16.20;99.60;;;;;;4933670;29;20503;-72
2021/06/13 07:33:46;;;;;;;16.08;5.65;;;16.20;99.70;;;;;;4918818;29;20040;-72
2021/06/13 07:36:12;;;;;;;14.02;5.30;;;16.30;99.90;;;;;;4918902;29;20036;-72
2021/06/13 07:38:38;;;;;;;16.58;5.50;;;16.30;99.90;;;;;;4933500;29;20048;-71
2021/06/13 07:41:03;;;;;;;11.35;4.57;;;16.30;99.90;;;;;;4918728;29;20059;-71
2021/06/13 07:43:29;;;;;;;14.25;4.45;;;16.30;99.20;;;;;;4918783;29;20047;-72
2021/06/13 07:45:55;;;;;;;14.25;4.35;;;16.30;99.40;;;;;;4933248;29;20425;-72
2021/06/13 07:48:22;;;;;;;14.73;4.75;;;16.30;97.60;;;;;;4918639;29;20044;-72
2021/06/13 07:50:48;;;;;;;12.45;4.50;;;16.40;97.80;;;;;;4933337;29;20060;-72
2021/06/13 07:53:14;;;;;;;15.57;5.22;;;16.30;97.80;;;;;;4918481;29;20044;-72
2021/06/13 07:55:40;;;;;;;14.27;4.88;;;16.50;98.20;;;;;;4918540;29;20080;-72
2021/06/13 07:58:06;;;;;;;14.32;4.55;;;16.50;97.90;;;;;;4918454;29;20036;-72
2021/06/13 08:00:33;;;;;;;13.00;4.85;;;16.50;97.60;;;;;;4918549;29;20054;-72
2021/06/13 08:02:59;;;;;;;13.63;4.70;;;16.50;97.60;;;;;;4918442;29;20512;-72
2021/06/13 08:05:25;;;;;;;10.18;4.38;;;16.50;97.90;;;;;;4918449;29;20064;-72
2021/06/13 08:07:53;;;;;;;10.48;4.32;;;16.60;97.60;;;;;;4933117;29;20062;-72
2021/06/13 08:10:19;;;;;;;19.13;4.85;;;16.70;97.20;;;;;;4918418;29;20048;-72
2021/06/13 08:12:44;;;;;;;10.65;5.03;;;16.70;97.50;;;;;;4918458;29;20044;-71
2021/06/13 08:15:10;;;;;;;8.30;4.78;;;16.70;97.50;;;;;;4932810;29;20056;-72
2021/06/13 08:17:36;;;;;;;11.20;4.70;;;16.90;97.50;;;;;;4918241;29;20059;-72
2021/06/13 08:20:05;;;;;;;12.48;4.68;;;16.90;97.50;;;;;;4917916;29;20048;-72
2021/06/13 08:22:30;;;;;;;10.68;4.60;;;17.00;97.20;;;;;;4918235;29;20067;-72
2021/06/13 08:25:00;;;;;;;12.95;5.40;;;17.00;97.20;;;;;;4918071;29;20044;-72
2021/06/13 08:27:27;;;;;;;11.80;4.95;;;17.10;97.50;;;;;;4918100;29;20495;-72
2021/06/13 08:29:54;;;;;;;12.98;5.18;;;17.10;97.40;;;;;;4905298;29;20051;-72
2021/06/13 08:32:20;;;;;;;14.23;5.47;;;17.20;97.60;;;;;;4916669;29;20040;-72
2021/06/13 08:34:46;;;;;;;14.95;5.03;;;17.20;97.70;;;;;;4921653;29;20544;-72
2021/06/13 08:37:12;;;;;;;12.60;4.72;;;17.30;97.70;;;;;;4915396;29;20035;-72
2021/06/13 08:39:37;;;;;;;10.10;4.88;;;17.40;97.70;;;;;;4932530;29;20048;-71
2021/06/13 08:42:04;;;;;;;13.88;4.60;;;17.40;97.60;;;;;;4917731;29;20473;-71
2021/06/13 08:44:30;;;;;;;9.70;4.90;;;17.40;97.60;;;;;;4917679;29;20569;-71
2021/06/13 08:46:59;;;;;;;14.77;5.13;;;17.50;97.50;;;;;;4932509;29;20056;-71
2021/06/13 08:49:25;;;;;;;15.57;5.50;;;17.50;97.70;;;;;;4916071;29;20492;-71
2021/06/13 08:51:53;;;;;;;11.85;4.88;;;17.40;97.10;;;;;;4917602;29;20032;-71
2021/06/13 08:54:20;;;;;;;12.15;4.72;;;17.50;97.20;;;;;;4917410;29;20544;-71
2021/06/13 08:56:46;;;;;;;10.45;4.90;;;17.60;97.30;;;;;;4917570;29;20040;-71
2021/06/13 08:59:12;;;;;;;9.60;4.28;;;17.50;96.50;;;;;;4917369;29;20556;-71
2021/06/13 09:01:38;;;;;;;11.38;4.28;;;17.50;96.00;;;;;;4917287;29;20043;-72
2021/06/13 09:04:05;;;;;;;14.00;5.45;;;17.50;96.10;;;;;;4917411;29;20040;-72
2021/06/13 09:06:31;;;;;;;12.23;4.78;;;17.60;96.60;;;;;;4931907;29;20123;-72
2021/06/13 09:08:58;;;;;;;11.27;4.88;;;17.60;96.70;;;;;;4909050;29;20049;-72
2021/06/13 09:11:33;;;;;;;11.45;5.35;;;17.50;96.80;;;;;;4912596;29;20408;-71
2021/06/13 09:14:15;;;;;;;9.85;4.80;;;17.50;96.80;;;;;;4917261;29;20044;-71
2021/06/13 09:16:47;;;;;;;17.10;5.80;;;17.60;97.30;;;;;;4931499;29;20040;-71
2021/06/13 09:19:13;;;;;;;10.05;4.95;;;17.60;97.10;;;;;;4916781;29;20156;-71
2021/06/13 09:21:40;;;;;;;11.35;5.45;;;17.50;97.10;;;;;;4917153;29;20052;-71
2021/06/13 09:24:22;;;;;;;11.68;5.45;;;17.50;96.90;;;;;;4917063;29;20036;-71
2021/06/13 09:26:49;;;;;;;10.38;4.85;;;17.50;96.30;;;;;;4917049;29;20401;-71
2021/06/13 09:29:15;;;;;;;14.10;4.80;;;17.50;96.70;;;;;;4916929;29;20052;-71
2021/06/13 09:31:42;;;;;;;9.93;4.85;;;17.50;96.80;;;;;;4916822;29;20120;-71
2021/06/13 09:34:18;;;;;;;10.43;5.10;;;17.60;96.90;;;;;;4916691;29;20485;-72
2021/06/13 09:36:44;;;;;;;12.48;4.80;;;17.70;96.70;;;;;;4916697;29;20040;-72
2021/06/13 09:39:14;;;;;;;13.05;5.28;;;17.70;96.50;;;;;;4916699;29;20040;-72
2021/06/13 09:41:45;;;;;;;10.10;4.95;;;17.80;96.80;;;;;;4916368;29;20036;-72
2021/06/13 09:44:16;;;;;;;10.85;5.20;;;17.90;96.60;;;;;;4916499;29;20095;-72
2021/06/13 09:46:45;;;;;;;12.98;5.18;;;17.90;96.50;;;;;;4916724;29;20036;-72
2021/06/13 09:49:17;;;;;;;13.60;4.78;;;18.00;96.40;;;;;;4916612;29;20055;-72
2021/06/13 09:51:53;;;;;;;8.90;4.15;;;18.00;95.50;;;;;;4916668;29;20036;-72
2021/06/13 09:54:22;;;;;;;9.75;5.05;;;18.10;95.50;;;;;;4916299;29;20051;-72
2021/06/13 09:56:48;;;;;;;12.10;5.43;;;18.10;96.00;;;;;;4916809;29;20091;-72
2021/06/13 09:59:23;;;;;;;11.20;4.78;;;18.10;96.00;;;;;;4916554;29;20071;-72
2021/06/13 10:01:52;;;;;;;14.57;5.53;;;18.20;96.10;;;;;;4903588;29;20043;-72
2021/06/13 10:04:21;;;;;;;15.60;5.30;;;18.20;95.70;;;;;;4916474;29;20068;-72
2021/06/13 10:06:49;;;;;;;10.93;4.97;;;18.20;96.00;;;;;;4916236;29;20036;-72
2021/06/13 10:09:16;;;;;;;13.93;5.30;;;18.40;96.20;;;;;;4916408;29;20040;-72
2021/06/13 10:11:43;;;;;;;11.43;4.75;;;18.50;96.10;;;;;;4916205;29;20036;-72
2021/06/13 10:14:16;;;;;;;14.18;5.47;;;18.60;95.70;;;;;;4916296;29;20071;-72
2021/06/13 10:16:51;;;;;;;10.68;5.45;;;18.80;95.80;;;;;;4916220;29;20052;-71
2021/06/13 10:19:20;;;;;;;12.83;5.33;;;18.70;95.80;;;;;;4915177;29;20468;-71
2021/06/13 10:21:47;;;;;;;13.05;5.30;;;18.60;95.90;;;;;;4916030;29;20299;-71
2021/06/13 10:24:25;;;;;;;12.57;6.10;;;18.60;96.10;;;;;;4916499;29;20346;-71
2021/06/13 10:27:02;;;;;;;14.23;6.70;;;18.40;95.90;;;;;;4916369;29;20424;-71
2021/06/13 10:29:30;;;;;;;14.07;4.65;;;18.30;95.50;;;;;;4916099;29;20048;-71
2021/06/13 10:31:58;;;;;;;14.65;5.53;;;18.10;95.00;;;;;;4915911;29;20493;-71
2021/06/13 10:34:26;;;;;;;11.18;4.65;;;18.30;95.00;;;;;;4930769;29;20043;-72
2021/06/13 10:36:53;;;;;;;12.07;5.43;;;18.40;95.40;;;;;;4916135;29;20044;-71
2021/06/13 10:39:22;;;;;;;15.00;4.97;;;18.40;95.80;;;;;;4930809;29;20086;-71
2021/06/13 10:41:49;;;;;;;11.05;4.95;;;18.60;96.10;;;;;;4915894;29;20052;-71
2021/06/13 10:44:22;;;;;;;14.68;5.05;;;18.60;96.00;;;;;;4930342;29;20040;-72
2021/06/13 10:47:12;;;;;;;13.25;4.78;;;18.60;96.00;;;;;;4916162;29;20040;-72
2021/06/13 10:49:40;;;;;;;13.77;5.07;;;18.60;96.40;;;;;;4915908;29;20428;-71
2021/06/13 10:52:17;;;;;;;9.82;4.30;;;18.70;96.50;;;;;;4930691;29;20048;-72
2021/06/13 10:54:52;;;;;;;18.15;6.68;;;18.80;96.10;;;;;;4916375;29;20567;-72
2021/06/13 10:57:18;;;;;;;15.75;6.38;;;19.00;95.90;;;;;;4919611;29;20044;-72
2021/06/13 10:59:55;;;;;;;12.00;4.80;;;19.10;95.90;;;;;;4919507;29;20108;-71
2021/06/13 11:02:49;;;;;;;10.48;5.00;;;19.20;95.80;;;;;;4919728;29;20432;-72
2021/06/13 11:05:34;;;;;;;12.55;4.43;;;19.30;95.20;;;;;;4906919;29;20098;-72
2021/06/13 11:08:00;;;;;;;10.40;4.30;;;19.20;93.40;;;;;;4919422;29;20085;-72
2021/06/13 11:10:29;;;;;;;11.30;5.18;;;19.10;94.20;;;;;;4919424;29;20457;-72
2021/06/13 11:13:02;;;;;;;12.85;4.63;;;19.10;94.40;;;;;;4919541;29;20060;-72
2021/06/13 11:15:32;;;;;;;12.02;4.75;;;19.10;94.60;;;;;;4906901;29;20106;-72
2021/06/13 11:18:00;;;;;;;11.15;5.18;;;19.20;94.70;;;;;;4919342;29;20068;-72
2021/06/13 11:20:37;;;;;;;17.13;6.40;;;19.30;94.30;;;;;;4919012;29;20052;-72
2021/06/13 11:23:08;;;;;;;12.85;5.18;;;19.40;94.30;;;;;;4919245;29;20512;-72
2021/06/13 11:25:39;;;;;;;10.18;4.53;;;19.50;94.20;;;;;;4918943;29;20532;-72
2021/06/13 11:28:19;;;;;;;10.75;5.25;;;19.50;92.30;;;;;;4919047;29;20111;-72
2021/06/13 11:30:46;;;;;;;15.43;5.00;;;19.40;92.80;;;;;;4906413;29;20040;-72
2021/06/13 11:33:32;;;;;;;16.33;4.50;;;19.30;92.80;;;;;;4919167;29;20370;-72
2021/06/13 11:35:59;;;;;;;9.18;4.35;;;19.20;93.20;;;;;;4907333;29;20111;-72
2021/06/13 11:38:27;;;;;;;13.02;4.47;;;19.20;93.30;;;;;;4933785;29;20493;-72
2021/06/13 11:40:59;;;;;;;11.98;4.82;;;19.20;92.90;;;;;;4918928;29;20039;-72
2021/06/13 11:43:30;;;;;;;16.48;4.15;;;19.20;92.50;;;;;;4919031;29;20048;-72
2021/06/13 11:46:06;;;;;;;9.55;4.10;;;19.30;92.70;;;;;;4918689;29;20052;-72
2021/06/13 11:48:33;;;;;;;;;;;19.40;92.70;;;;;;4919090;29;20409;-72
2021/06/13 11:51:10;;;;;;;10.07;4.70;;;19.40;92.80;;;;;;4918539;29;19965;-72
2021/06/13 11:53:55;;;;;;;7.68;3.83;;;19.50;93.20;;;;;;4933390;29;20404;-72
2021/06/13 11:56:33;;;;;;;12.48;4.53;;;19.50;93.60;;;;;;4933183;29;20612;-72
2021/06/13 11:58:59;;;;;;;7.45;4.18;;;19.60;92.80;;;;;;4918628;29;20574;-71
2021/06/13 12:01:25;;;;;;;13.77;4.50;;;19.70;92.40;;;;;;4933130;29;20111;-72
2021/06/13 12:03:52;;;;;;;8.52;4.22;;;19.70;91.90;;;;;;4918608;29;20032;-72
2021/06/13 12:06:18;;;;;;;10.20;4.03;;;19.80;91.80;;;;;;4918227;29;20440;-72
2021/06/13 12:08:47;;;;;;;9.48;4.30;;;19.90;92.30;;;;;;4918439;29;20156;-72
2021/06/13 12:11:49;;;;;;;13.55;4.00;;;20.00;92.10;;;;;;4918294;29;20051;-72
2021/06/13 12:14:35;;;;;;;10.38;3.92;;;20.10;91.70;;;;;;4888638;29;20052;-72
2021/06/13 12:17:05;;;;;;;11.10;4.15;;;20.30;91.80;;;;;;4917903;29;20044;-72
2021/06/13 12:19:37;;;;;;;10.25;4.18;;;20.30;91.70;;;;;;4918043;29;20063;-72
2021/06/13 12:22:25;;;;;;;11.10;4.10;;;20.30;90.70;;;;;;4918154;29;20132;-72
2021/06/13 12:27:29;;;;;;;9.70;4.20;;;20.10;91.10;;;;;;4906184;29;20032;-72
2021/06/13 12:30:03;;;;;;;11.45;4.20;;;20.00;91.30;;;;;;4918143;29;20071;-72
2021/06/13 12:32:33;;;;;;;8.05;4.07;;;20.10;91.20;;;;;;4905492;29;20111;-72
2021/06/13 12:35:16;;;;;;;10.65;4.13;;;20.20;91.30;;;;;;4917974;29;20063;-72
2021/06/13 12:38:05;;;;;;;11.98;4.45;;;20.30;90.90;;;;;;4917894;29;20055;-72
2021/06/13 12:40:36;;;;;;;10.00;4.03;;;20.30;90.50;;;;;;4914928;29;20059;-72
2021/06/13 12:43:04;;;;;;;8.68;3.75;;;20.40;91.00;;;;;;4917816;29;20115;-72
2021/06/13 12:45:30;;;;;;;11.15;4.20;;;20.40;91.10;;;;;;4917661;29;20054;-72
2021/06/13 12:47:58;;;;;;;11.02;3.90;;;20.50;91.30;;;;;;4917556;29;20044;-72
2021/06/13 12:50:26;;;;;;;9.38;3.90;;;20.50;90.40;;;;;;4917572;29;20119;-72